Time;durP1;ratioP1;P1;durP2;ratioP2;P2;SDS_P1;SDS_P2;PMS_P1;PMS_P2;Temp;Humidity;BMP_temperature;BMP_pressure;BME280_temperature;BME280_humidity;BME280_pressure;Samples;Min_cycle;Max_cycle;Signal;HPM_P1;HPM_P2
2022/12/18 00:01:31;;;;;;;65.10;23.30;;;;;;;-5.10;89.80;99801.22;103222;1298;138458;-78
2022/12/18 00:04:00;;;;;;;70.40;23.60;;;;;;;-5.09;89.75;99805.41;103577;1301;24193;-79
2022/12/18 00:06:30;;;;;;;65.00;24.20;;;;;;;-5.09;89.53;99809.64;102998;1310;140368;-78
2022/12/18 00:08:58;;;;;;;68.60;22.80;;;;;;;-5.08;89.52;99814.52;103288;1288;25210;-78
2022/12/18 00:11:29;;;;;;;68.40;24.30;;;;;;;-5.07;89.71;99816.08;103265;1300;139516;-78
2022/12/18 00:13:59;;;;;;;72.80;25.10;;;;;;;-5.06;89.79;99817.88;103429;1310;24250;-78
2022/12/18 00:16:29;;;;;;;66.00;23.50;;;;;;;-5.03;89.52;99821.40;103155;1293;24440;-78
2022/12/18 00:18:59;;;;;;;72.90;26.10;;;;;;;-5.01;89.46;99821.42;103459;1310;139022;-78
2022/12/18 00:21:29;;;;;;;59.30;22.40;;;;;;;-4.99;89.47;99829.48;103436;1297;23910;-79
2022/12/18 00:23:57;;;;;;;62.10;22.30;;;;;;;-5.00;88.76;99837.52;103353;1302;139064;-79
2022/12/18 00:26:29;;;;;;;54.20;18.80;;;;;;;-5.02;89.29;99844.15;103267;1281;25336;-78
2022/12/18 00:29:15;;;;;;;48.70;18.00;;;;;;;-5.08;88.12;99848.67;103139;1295;25368;-79
2022/12/18 00:31:43;;;;;;;47.70;18.60;;;;;;;-5.14;87.98;99853.39;103085;1307;22479;-79
2022/12/18 00:34:12;;;;;;;41.70;16.00;;;;;;;-5.19;88.26;99848.42;103137;1302;23041;-79
2022/12/18 00:36:41;;;;;;;42.10;16.70;;;;;;;-5.23;88.32;99847.13;103243;1288;139365;-78
2022/12/18 00:39:10;;;;;;;42.00;15.30;;;;;;;-5.28;88.38;99846.73;103139;1288;22517;-79
2022/12/18 00:44:23;;;;;;;31.30;13.70;;;;;;;-5.39;87.42;99855.29;103435;1300;24041;-79
2022/12/18 00:46:52;;;;;;;29.10;11.10;;;;;;;-5.45;86.61;99851.88;103225;1301;22474;-79
2022/12/18 00:49:20;;;;;;;32.50;13.10;;;;;;;-5.50;86.75;99857.86;103214;1295;139637;-79
2022/12/18 00:51:48;;;;;;;31.60;13.30;;;;;;;-5.56;87.18;99864.27;103195;1308;22476;-79
2022/12/18 00:54:16;;;;;;;28.60;12.10;;;;;;;-5.58;86.87;99869.95;103122;1294;140546;-80
2022/12/18 00:56:43;;;;;;;34.00;12.80;;;;;;;-5.61;87.10;99873.30;103076;1291;22560;-79
2022/12/18 00:59:10;;;;;;;31.30;12.50;;;;;;;-5.63;87.51;99876.11;103133;1303;22928;-79
2022/12/18 01:01:40;;;;;;;37.00;13.60;;;;;;;-5.64;87.45;99877.09;103148;1310;22473;-79
2022/12/18 01:04:07;;;;;;;36.30;13.70;;;;;;;-5.64;87.22;99877.10;103182;1310;24446;-79
2022/12/18 01:06:34;;;;;;;39.50;16.10;;;;;;;-5.64;87.96;99878.27;102965;1291;138806;-77
2022/12/18 01:09:02;;;;;;;34.90;13.10;;;;;;;-5.63;87.97;99886.88;103176;1297;24334;-77
2022/12/18 01:11:30;;;;;;;31.60;13.60;;;;;;;-5.62;87.96;99891.08;103030;1291;138649;-78
2022/12/18 01:13:57;;;;;;;33.60;13.60;;;;;;;-5.62;87.93;99897.27;103333;1299;22475;-78
2022/12/18 01:16:24;;;;;;;33.00;13.60;;;;;;;-5.63;87.64;99896.60;102949;1308;24324;-77
2022/12/18 01:18:53;;;;;;;24.90;11.70;;;;;;;-5.62;87.38;99903.48;102943;1302;139018;-77
2022/12/18 01:21:21;;;;;;;33.80;13.90;;;;;;;-5.62;87.73;99902.79;103264;1296;22545;-77
2022/12/18 01:23:53;;;;;;;29.20;12.30;;;;;;;-5.62;87.87;99906.11;103031;1288;139048;-77
2022/12/18 01:26:22;;;;;;;37.30;13.10;;;;;;;-5.61;87.75;99910.44;103180;1304;24258;-77
2022/12/18 01:28:51;;;;;;;31.40;11.80;;;;;;;-5.58;87.80;99911.15;103483;1299;25448;-77
2022/12/18 01:31:25;;;;;;;34.70;13.30;;;;;;;-5.56;87.60;99911.50;102995;1310;138513;-77
2022/12/18 01:33:53;;;;;;;36.40;15.00;;;;;;;-5.53;87.16;99910.92;103295;1295;25292;-77
2022/12/18 01:36:29;;;;;;;33.60;13.80;;;;;;;-5.49;87.65;99918.02;103118;1311;140188;-77
2022/12/18 01:39:05;;;;;;;33.20;14.20;;;;;;;-5.46;87.73;99916.54;103269;1302;22487;-77
2022/12/18 01:44:47;;;;;;;40.00;14.90;;;;;;;-5.40;87.98;99913.61;103430;1294;23885;-78
2022/12/18 01:47:36;;;;;;;36.10;14.00;;;;;;;-5.38;87.09;99915.23;103056;1299;140267;-77
2022/12/18 01:50:13;;;;;;;33.90;14.70;;;;;;;-5.38;87.21;99919.17;103153;1288;25482;-77
2022/12/18 01:52:43;;;;;;;38.60;14.80;;;;;;;-5.39;87.29;99917.24;103636;1306;22489;-77
2022/12/18 01:55:12;;;;;;;31.20;14.60;;;;;;;-5.38;87.09;99917.05;103116;1309;138384;-78
2022/12/18 01:57:40;;;;;;;32.10;13.70;;;;;;;-5.38;86.86;99925.84;103026;1290;25263;-78
2022/12/18 02:00:14;;;;;;;30.50;12.90;;;;;;;-5.38;86.57;99928.00;103054;1289;138379;-77
2022/12/18 02:02:42;;;;;;;29.10;12.60;;;;;;;-5.39;86.53;99931.92;103358;1295;23909;-77
2022/12/18 02:05:12;;;;;;;29.80;12.90;;;;;;;-5.39;86.52;99937.44;103857;1299;22482;-77
2022/12/18 02:07:54;;;;;;;31.70;13.60;;;;;;;-5.39;86.96;99936.93;103117;1310;25275;-78
2022/12/18 02:10:26;;;;;;;31.80;12.60;;;;;;;-5.38;86.44;99944.48;103000;1313;22498;-78
2022/12/18 02:13:06;;;;;;;30.80;12.30;;;;;;;-5.38;86.41;99950.09;102945;1291;138890;-78
2022/12/18 02:15:37;;;;;;;36.50;13.20;;;;;;;-5.38;86.36;99951.69;103046;1310;22538;-78
2022/12/18 02:18:13;;;;;;;35.20;13.80;;;;;;;-5.37;86.29;99953.04;103010;1294;140573;-78
2022/12/18 02:20:54;;;;;;;32.50;13.70;;;;;;;-5.36;86.59;99957.21;103500;1310;22645;-78
2022/12/18 02:23:44;;;;;;;31.90;13.30;;;;;;;-5.34;86.73;99961.48;103155;1303;139625;-78
2022/12/18 02:26:40;;;;;;;31.10;12.70;;;;;;;-5.34;86.38;99962.55;103117;1310;25574;-78
2022/12/18 02:29:13;;;;;;;26.70;11.30;;;;;;;-5.35;86.36;99962.27;103244;1312;22598;-77
2022/12/18 02:31:46;;;;;;;27.10;11.40;;;;;;;-5.35;86.01;99970.97;103239;1305;139733;-77
2022/12/18 02:34:16;;;;;;;30.90;12.50;;;;;;;-5.35;86.39;99971.67;103122;1310;22905;-77
2022/12/18 02:36:45;;;;;;;28.60;12.40;;;;;;;-5.33;85.96;99977.20;102969;1293;138712;-78
2022/12/18 02:39:15;;;;;;;27.30;12.20;;;;;;;-5.32;86.40;99975.76;103108;1306;23348;-78
2022/12/18 02:41:50;;;;;;;31.60;13.80;;;;;;;-5.30;86.52;99980.54;103038;1310;138876;-78
2022/12/18 02:44:19;;;;;;;33.60;13.80;;;;;;;-5.28;86.47;99980.21;103319;1300;22604;-77
2022/12/18 02:46:51;;;;;;;30.10;12.60;;;;;;;-5.25;86.14;99980.21;103007;1298;24997;-78
2022/12/18 02:49:22;;;;;;;30.90;13.80;;;;;;;-5.23;86.83;99988.58;103223;1296;138598;-78
2022/12/18 02:52:08;;;;;;;33.90;14.10;;;;;;;-5.21;86.43;99991.06;103167;1288;25479;-78
2022/12/18 02:54:44;;;;;;;40.20;15.60;;;;;;;-5.18;86.71;99996.52;102934;1296;139353;-78
2022/12/18 02:57:40;;;;;;;38.60;15.20;;;;;;;-5.16;86.51;99995.48;103099;1286;22499;-78
2022/12/18 03:00:21;;;;;;;36.40;14.40;;;;;;;-5.14;87.10;99999.77;103051;1310;139041;-77
2022/12/18 03:02:53;;;;;;;46.10;17.40;;;;;;;-5.12;87.22;100004.43;103343;1289;24259;-78
2022/12/18 03:05:28;;;;;;;47.20;18.10;;;;;;;-5.10;87.32;100003.42;102872;1302;138874;-78
2022/12/18 03:08:05;;;;;;;46.00;17.00;;;;;;;-5.08;87.00;100007.91;103066;1294;22525;-78
2022/12/18 03:10:42;;;;;;;41.30;17.60;;;;;;;-5.06;87.23;100001.73;103375;1312;24824;-78
2022/12/18 03:13:19;;;;;;;40.30;16.30;;;;;;;-5.04;86.72;100008.64;103014;1297;139069;-78
2022/12/18 03:15:54;;;;;;;45.20;17.30;;;;;;;-5.01;87.21;100016.58;103025;1311;22878;-78
2022/12/18 03:18:26;;;;;;;47.40;16.60;;;;;;;-5.00;86.70;100016.70;102988;1297;139318;-78
2022/12/18 03:20:57;;;;;;;42.40;16.20;;;;;;;-5.00;86.74;100019.15;103282;1303;25365;-78
2022/12/18 03:23:31;;;;;;;37.60;16.10;;;;;;;-5.00;86.83;100014.19;103012;1289;139221;-78
2022/12/18 03:26:04;;;;;;;42.00;16.60;;;;;;;-4.99;86.82;100014.71;104196;1289;22732;-78
2022/12/18 03:28:36;;;;;;;39.40;16.70;;;;;;;-4.98;87.14;100017.80;103341;1294;25216;-78
2022/12/18 03:31:08;;;;;;;42.00;17.60;;;;;;;-4.95;86.91;100020.77;104007;1312;138712;-78
2022/12/18 03:33:45;;;;;;;40.50;17.80;;;;;;;-4.91;87.39;100026.54;103167;1290;25317;-78
2022/12/18 03:36:13;;;;;;;39.30;16.20;;;;;;;-4.87;87.66;100034.05;102775;1312;140900;-78
2022/12/18 03:38:40;;;;;;;46.30;18.80;;;;;;;-4.84;87.38;100038.61;103080;1304;25438;-77
2022/12/18 03:41:19;;;;;;;48.10;20.00;;;;;;;-4.83;86.92;100041.04;103146;1298;22480;-78
2022/12/18 03:44:28;;;;;;;53.40;20.30;;;;;;;-4.80;87.06;100044.90;102961;1306;22481;-78
2022/12/18 03:47:28;;;;;;;50.50;19.70;;;;;;;-4.79;86.95;100042.17;102967;1306;26494;-78
2022/12/18 03:50:01;;;;;;;60.50;21.90;;;;;;;-4.81;87.05;100046.17;102505;1310;22597;-78
2022/12/18 03:52:54;;;;;;;63.80;22.80;;;;;;;-4.81;86.93;100048.83;102408;1300;24062;-78
2022/12/18 03:55:23;;;;;;;61.60;21.90;;;;;;;-4.81;87.22;100047.45;102413;1296;139276;-78
2022/12/18 03:57:56;;;;;;;53.90;20.40;;;;;;;-4.81;87.31;100053.61;102579;1301;22502;-77
2022/12/18 04:00:25;;;;;;;53.60;20.90;;;;;;;-4.83;87.19;100056.27;102513;1294;138733;-78
2022/12/18 04:03:01;;;;;;;57.40;22.50;;;;;;;-4.84;87.34;100062.16;102534;1293;22604;-78
2022/12/18 04:05:37;;;;;;;55.00;21.90;;;;;;;-4.85;87.72;100064.35;102344;1303;138856;-77
2022/12/18 04:08:05;;;;;;;52.20;20.10;;;;;;;-4.86;87.24;100063.05;102468;1294;25406;-77
2022/12/18 04:10:36;;;;;;;55.10;22.60;;;;;;;-4.87;87.22;100065.94;102300;1305;22509;-78
2022/12/18 04:13:03;;;;;;;62.50;21.60;;;;;;;-4.87;87.47;100066.64;102228;1307;138748;-77
2022/12/18 04:15:34;;;;;;;56.00;21.90;;;;;;;-4.89;87.58;100075.13;102269;1320;23113;-77
2022/12/18 04:18:02;;;;;;;62.20;23.50;;;;;;;-4.89;87.32;100077.09;102329;1304;139181;-78
2022/12/18 04:20:34;;;;;;;56.90;21.20;;;;;;;-4.90;87.53;100076.58;102769;1302;25595;-78
2022/12/18 04:23:01;;;;;;;59.80;22.50;;;;;;;-4.90;88.10;100078.72;102792;1304;22490;-78
2022/12/18 04:25:28;;;;;;;56.50;22.60;;;;;;;-4.91;87.66;100080.40;102609;1295;138671;-78
2022/12/18 04:28:05;;;;;;;64.00;23.80;;;;;;;-4.92;87.99;100083.80;103495;1287;22536;-78
2022/12/18 04:30:33;;;;;;;62.20;23.30;;;;;;;-4.91;87.53;100081.44;103327;1310;138674;-78
2022/12/18 04:33:01;;;;;;;59.40;21.90;;;;;;;-4.89;88.35;100084.30;103002;1292;22523;-78
2022/12/18 04:35:30;;;;;;;62.80;23.40;;;;;;;-4.87;87.77;100088.98;103142;1300;139353;-78
2022/12/18 04:37:57;;;;;;;59.90;22.20;;;;;;;-4.86;87.82;100096.70;103342;1281;25291;-78
2022/12/18 04:40:24;;;;;;;57.20;20.80;;;;;;;-4.85;87.86;100096.13;103401;1303;22492;-78
2022/12/18 04:42:53;;;;;;;58.60;21.20;;;;;;;-4.86;88.04;100109.23;103173;1302;138629;-78
2022/12/18 04:45:19;;;;;;;60.20;22.60;;;;;;;-4.87;87.97;100112.90;103242;1296;24270;-78
2022/12/18 04:47:46;;;;;;;64.80;23.70;;;;;;;-4.88;87.94;100109.20;103047;1291;139014;-77
2022/12/18 04:50:13;;;;;;;61.00;22.20;;;;;;;-4.87;88.13;100111.82;103266;1280;22745;-78
2022/12/18 04:52:40;;;;;;;61.40;22.50;;;;;;;-4.87;88.35;100113.41;103383;1303;22495;-78
2022/12/18 04:55:07;;;;;;;65.40;24.50;;;;;;;-4.88;87.77;100112.42;103043;1288;138710;-78
2022/12/18 04:57:34;;;;;;;63.40;22.60;;;;;;;-4.94;87.90;100116.70;103307;1288;26601;-78
2022/12/18 05:00:02;;;;;;;58.00;20.80;;;;;;;-4.98;87.91;100119.08;103267;1310;138768;-78
2022/12/18 05:02:29;;;;;;;65.10;22.80;;;;;;;-5.01;87.87;100125.48;103137;1310;25248;-78
2022/12/18 05:04:56;;;;;;;63.60;20.60;;;;;;;-5.01;87.90;100128.71;103115;1288;23345;-78
2022/12/18 05:07:23;;;;;;;54.20;20.30;;;;;;;-5.01;88.18;100129.74;102999;1310;139597;-78
2022/12/18 05:09:50;;;;;;;62.10;21.20;;;;;;;-5.02;88.01;100133.18;103213;1280;24036;-78
2022/12/18 05:12:17;;;;;;;67.30;23.30;;;;;;;-5.04;88.17;100134.07;103472;1300;140101;-77
2022/12/18 05:14:44;;;;;;;54.70;20.00;;;;;;;-5.05;88.25;100135.17;103199;1280;22496;-78
2022/12/18 05:17:11;;;;;;;57.60;22.80;;;;;;;-5.08;87.93;100139.27;103091;1286;22519;-77
2022/12/18 05:19:38;;;;;;;59.80;23.10;;;;;;;-5.09;88.00;100142.34;102952;1297;139245;-78
2022/12/18 05:22:08;;;;;;;58.80;22.30;;;;;;;-5.09;88.34;100147.66;103128;1300;22474;-77
2022/12/18 05:24:35;;;;;;;55.40;22.30;;;;;;;-5.08;88.41;100149.55;103014;1289;140207;-78
2022/12/18 05:27:02;;;;;;;63.10;22.20;;;;;;;-5.06;88.22;100147.09;103110;1292;23122;-78
2022/12/18 05:29:29;;;;;;;52.80;19.70;;;;;;;-5.04;88.18;100143.80;103400;1289;24295;-78
2022/12/18 05:31:56;;;;;;;58.00;21.40;;;;;;;-5.02;88.41;100148.76;103071;1299;140238;-78
2022/12/18 05:34:23;;;;;;;57.70;23.50;;;;;;;-5.01;88.45;100146.91;103149;1290;22549;-78
2022/12/18 05:36:50;;;;;;;68.70;24.30;;;;;;;-5.00;88.46;100147.57;102934;1290;140342;-78
2022/12/18 05:39:17;;;;;;;66.30;22.90;;;;;;;-5.01;88.45;100147.46;103279;1310;24451;-78
2022/12/18 05:41:44;;;;;;;63.80;22.90;;;;;;;-5.00;88.56;100150.80;103111;1286;139973;-78
2022/12/18 05:44:11;;;;;;;63.20;23.40;;;;;;;-5.00;88.54;100155.88;103536;1295;24711;-77
2022/12/18 05:46:38;;;;;;;60.40;21.40;;;;;;;-4.97;88.08;100159.94;103110;1295;23312;-77
2022/12/18 05:49:07;;;;;;;63.10;22.00;;;;;;;-4.97;88.24;100160.64;103006;1297;138652;-78
2022/12/18 05:51:34;;;;;;;56.30;22.40;;;;;;;-4.97;88.46;100164.02;103135;1305;25623;-78
2022/12/18 05:54:01;;;;;;;69.10;24.10;;;;;;;-4.96;88.21;100166.79;103161;1294;139740;-78
2022/12/18 05:56:28;;;;;;;70.50;24.40;;;;;;;-4.94;88.71;100174.10;103145;1297;23928;-77
2022/12/18 05:58:55;;;;;;;63.90;23.00;;;;;;;-4.92;88.62;100175.21;103144;1310;25218;-78
2022/12/18 06:01:26;;;;;;;60.70;22.60;;;;;;;-4.90;88.60;100177.40;103007;1289;138656;-78
2022/12/18 06:03:53;;;;;;;58.90;22.40;;;;;;;-4.92;88.05;100176.81;103207;1284;22565;-78
2022/12/18 06:06:26;;;;;;;64.90;24.10;;;;;;;-4.92;88.43;100183.38;103090;1297;138823;-78
2022/12/18 06:08:54;;;;;;;63.10;23.70;;;;;;;-4.91;88.17;100184.03;103246;1297;22622;-78
2022/12/18 06:11:23;;;;;;;64.50;25.30;;;;;;;-4.90;88.02;100190.51;103161;1280;22754;-78
2022/12/18 06:13:52;;;;;;;65.10;21.90;;;;;;;-4.88;88.31;100194.47;103070;1299;138755;-78
2022/12/18 06:16:19;;;;;;;54.70;20.70;;;;;;;-4.90;87.84;100200.05;103195;1287;25380;-78
2022/12/18 06:18:46;;;;;;;63.70;23.50;;;;;;;-4.90;88.25;100202.91;102929;1310;139247;-78
2022/12/18 06:21:13;;;;;;;61.40;23.30;;;;;;;-4.88;88.65;100206.80;103246;1308;22540;-77
2022/12/18 06:23:40;;;;;;;57.20;23.80;;;;;;;-4.86;88.23;100207.02;103078;1294;140090;-78
2022/12/18 06:26:11;;;;;;;62.90;23.60;;;;;;;-4.82;88.35;100210.49;103715;1288;25526;-78
2022/12/18 06:28:39;;;;;;;64.90;24.80;;;;;;;-4.79;88.41;100216.30;103841;1286;22474;-78
2022/12/18 06:31:07;;;;;;;60.90;22.90;;;;;;;-4.76;88.93;100212.40;103733;1287;138508;-78
2022/12/18 06:33:34;;;;;;;61.50;22.20;;;;;;;-4.72;88.93;100215.50;103754;1285;24514;-78
2022/12/18 06:36:08;;;;;;;58.70;22.40;;;;;;;-4.71;88.19;100220.04;104241;1288;139155;-77
2022/12/18 06:38:36;;;;;;;62.70;23.50;;;;;;;-4.68;88.38;100220.73;103014;1293;28626;-77
2022/12/18 06:41:08;;;;;;;66.80;23.40;;;;;;;-4.66;88.17;100224.98;103454;1288;24260;-77
2022/12/18 06:43:35;;;;;;;62.60;22.70;;;;;;;-4.63;88.70;100227.80;104134;1285;140310;-78
2022/12/18 06:46:04;;;;;;;61.50;22.70;;;;;;;-4.59;88.71;100231.59;103527;1290;22491;-77
2022/12/18 06:48:31;;;;;;;70.70;22.60;;;;;;;-4.58;88.03;100233.66;103263;1298;138473;-78
2022/12/18 06:50:59;;;;;;;60.80;22.90;;;;;;;-4.58;87.80;100230.84;103926;1309;22312;-78
2022/12/18 06:53:26;;;;;;;59.60;22.30;;;;;;;-4.55;88.02;100233.86;103723;1293;22477;-78
2022/12/18 06:56:00;;;;;;;72.10;24.80;;;;;;;-4.55;87.40;100236.31;103191;1310;138637;-78
2022/12/18 06:58:27;;;;;;;62.70;23.70;;;;;;;-4.55;87.49;100242.71;103199;1309;22489;-78
2022/12/18 07:01:00;;;;;;;61.00;23.80;;;;;;;-4.54;87.42;100245.68;106356;1295;140247;-78
2022/12/18 07:03:27;;;;;;;61.40;23.60;;;;;;;-4.53;87.15;100251.59;103170;1297;23528;-78
2022/12/18 07:05:53;;;;;;;65.30;26.00;;;;;;;-4.52;87.03;100257.19;103051;1282;139085;-77
2022/12/18 07:08:20;;;;;;;58.20;23.30;;;;;;;-4.49;87.25;100261.27;103180;1310;24111;-78
2022/12/18 07:10:48;;;;;;;59.70;23.80;;;;;;;-4.47;86.73;100264.48;103314;1306;24260;-78
2022/12/18 07:13:16;;;;;;;66.10;24.00;;;;;;;-4.44;86.75;100268.02;103238;1296;138411;-78
2022/12/18 07:15:43;;;;;;;66.60;23.60;;;;;;;-4.39;87.28;100267.48;103357;1310;22501;-78
2022/12/18 07:18:10;;;;;;;61.30;24.40;;;;;;;-4.33;87.17;100271.14;102924;1306;139098;-78
2022/12/18 07:20:37;;;;;;;69.60;25.30;;;;;;;-4.29;86.91;100271.56;103238;1300;25311;-78
2022/12/18 07:23:05;;;;;;;58.40;22.00;;;;;;;-4.26;86.58;100273.48;103219;1288;22506;-78
2022/12/18 07:25:36;;;;;;;53.20;21.70;;;;;;;-4.26;86.24;100280.96;103229;1279;139107;-78
2022/12/18 07:28:04;;;;;;;59.60;21.50;;;;;;;-4.26;85.83;100284.70;103158;1297;24357;-78
2022/12/18 07:30:31;;;;;;;57.90;22.60;;;;;;;-4.28;85.93;100286.26;103402;1287;138413;-78
2022/12/18 07:32:58;;;;;;;61.50;22.20;;;;;;;-4.27;85.54;100288.34;103273;1302;24552;-78
2022/12/18 07:35:25;;;;;;;61.80;22.60;;;;;;;-4.24;85.97;100300.66;103065;1280;117625;-78
2022/12/18 07:37:52;;;;;;;62.20;24.10;;;;;;;-4.23;85.30;100303.12;102957;1285;138428;-78
2022/12/18 07:40:19;;;;;;;52.90;21.20;;;;;;;-4.21;85.88;100307.56;103050;1286;22481;-78
2022/12/18 07:42:46;;;;;;;59.00;23.40;;;;;;;-4.16;85.99;100314.91;103117;1286;138427;-78
2022/12/18 07:45:13;;;;;;;60.40;22.70;;;;;;;-4.11;85.40;100315.39;103080;1302;22178;-78
2022/12/18 07:47:41;;;;;;;59.70;24.50;;;;;;;-4.08;85.04;100313.40;102947;1298;138675;-77
2022/12/18 07:50:08;;;;;;;65.80;24.30;;;;;;;-4.05;84.86;100319.29;102108;1310;1290082;-78
2022/12/18 07:52:35;;;;;;;57.50;22.40;;;;;;;-4.03;85.01;100320.57;103003;1289;22492;-78
2022/12/18 07:55:02;;;;;;;66.10;25.20;;;;;;;-4.03;84.65;100320.18;103144;1308;138472;-78
2022/12/18 07:57:30;;;;;;;60.10;24.20;;;;;;;-4.03;84.70;100319.86;103054;1294;22607;-78
2022/12/18 07:59:56;;;;;;;59.00;22.90;;;;;;;-4.02;84.69;100322.09;102955;1281;140204;-78
2022/12/18 08:02:23;;;;;;;64.50;24.60;;;;;;;-3.98;84.40;100324.65;103372;1290;25413;-78
2022/12/18 08:04:50;;;;;;;64.50;24.60;;;;;;;-3.94;84.77;100323.33;103104;1297;23906;-78
2022/12/18 08:07:17;;;;;;;64.70;23.90;;;;;;;-3.88;84.44;100326.43;102899;1310;138479;-78
2022/12/18 08:09:44;;;;;;;59.50;23.00;;;;;;;-3.85;84.10;100323.17;103102;1289;22487;-78
2022/12/18 08:12:11;;;;;;;66.00;24.20;;;;;;;-3.81;84.01;100321.50;103169;1281;139008;-78
2022/12/18 08:14:38;;;;;;;61.50;24.30;;;;;;;-3.74;84.55;100328.81;103067;1305;22934;-78
2022/12/18 08:17:04;;;;;;;61.10;24.50;;;;;;;-3.67;83.93;100330.86;103166;1288;22499;-78
2022/12/18 08:19:31;;;;;;;60.20;23.10;;;;;;;-3.63;83.52;100334.24;103078;1303;138687;-78
2022/12/18 08:21:58;;;;;;;64.00;24.00;;;;;;;-3.62;83.24;100335.79;103102;1288;24200;-78
2022/12/18 08:24:25;;;;;;;47.00;18.30;;;;;;;-3.60;82.90;100338.71;102948;1310;138923;-78
2022/12/18 08:26:52;;;;;;;67.80;23.80;;;;;;;-3.63;82.29;100343.52;103059;1310;25450;-78
2022/12/18 08:29:19;;;;;;;61.60;23.60;;;;;;;-3.63;82.84;100342.11;103061;1310;25296;-78
2022/12/18 08:31:46;;;;;;;68.00;26.90;;;;;;;-3.57;82.95;100347.39;103052;1298;140033;-78
2022/12/18 08:34:13;;;;;;;56.60;22.70;;;;;;;-3.50;83.16;100345.06;104031;1288;25403;-78
2022/12/18 08:36:40;;;;;;;65.80;23.90;;;;;;;-3.45;82.39;100350.63;103556;1280;139655;-78
2022/12/18 08:39:07;;;;;;;64.40;25.20;;;;;;;-3.43;82.17;100350.30;103759;1310;22540;-78
2022/12/18 08:41:34;;;;;;;66.70;24.80;;;;;;;-3.36;82.22;100350.33;103722;1303;25303;-78
2022/12/18 08:46:46;;;;;;;65.60;25.60;;;;;;;-3.17;82.50;100343.98;103390;1295;22719;-78
2022/12/18 08:49:14;;;;;;;63.10;22.50;;;;;;;-3.05;81.95;100347.41;102903;1294;138466;-78
2022/12/18 08:51:41;;;;;;;65.00;25.20;;;;;;;-3.04;81.19;100350.88;103040;1289;22483;-78
2022/12/18 08:54:11;;;;;;;64.50;24.60;;;;;;;-2.99;81.23;100353.73;102909;1287;138603;-78
2022/12/18 08:56:38;;;;;;;63.80;24.40;;;;;;;-2.97;80.92;100359.98;103222;1304;22506;-78
2022/12/18 08:59:05;;;;;;;71.60;27.60;;;;;;;-2.92;80.94;100362.27;102980;1304;22561;-78
2022/12/18 09:01:32;;;;;;;74.40;29.40;;;;;;;-2.83;81.01;100363.95;102995;1296;139640;-78
2022/12/18 09:03:58;;;;;;;66.30;28.00;;;;;;;-2.73;80.70;100360.51;103266;1289;24466;-76
2022/12/18 09:06:26;;;;;;;60.50;23.60;;;;;;;-2.62;80.78;100367.71;102926;1298;138661;-78
2022/12/18 09:08:53;;;;;;;60.60;26.40;;;;;;;-2.52;80.10;100367.35;103506;1295;22473;-78
2022/12/18 09:11:23;;;;;;;72.00;26.30;;;;;;;-2.43;80.12;100369.39;103040;1295;22733;-78
2022/12/18 09:13:51;;;;;;;70.40;27.30;;;;;;;-2.36;79.71;100369.19;103331;1303;137861;-77
2022/12/18 09:16:19;;;;;;;72.90;25.60;;;;;;;-2.26;79.90;100364.91;103496;1293;22503;-78
2022/12/18 09:18:47;;;;;;;63.80;24.90;;;;;;;-2.17;79.23;100368.64;103406;1297;137858;-77
2022/12/18 09:21:17;;;;;;;68.90;24.80;;;;;;;-2.13;78.35;100370.64;103268;1288;22395;-78
2022/12/18 09:23:50;;;;;;;64.70;25.00;;;;;;;-2.14;77.59;100371.12;106150;1296;138957;-78
2022/12/18 09:26:17;;;;;;;59.50;23.40;;;;;;;-2.16;77.26;100367.14;103094;1310;22557;-77
2022/12/18 09:28:44;;;;;;;56.30;23.20;;;;;;;-2.17;77.43;100370.27;103101;1295;22643;-77
2022/12/18 09:31:15;;;;;;;59.60;24.70;;;;;;;-2.18;77.38;100370.16;102984;1288;138224;-77
2022/12/18 09:33:42;;;;;;;65.90;24.70;;;;;;;-2.21;77.20;100369.52;102965;1302;22558;-77
2022/12/18 09:36:12;;;;;;;69.00;27.00;;;;;;;-2.16;78.10;100372.70;102904;1310;138934;-77
2022/12/18 09:38:39;;;;;;;60.50;26.40;;;;;;;-2.09;77.84;100373.02;103347;1308;22493;-77
2022/12/18 09:41:40;;;;;;;70.00;26.50;;;;;;;-1.99;77.89;100369.42;103295;1288;22486;-77
2022/12/18 09:44:33;;;;;;;63.70;25.50;;;;;;;-1.86;77.83;100372.01;103016;1297;22488;-77
2022/12/18 09:47:14;;;;;;;65.00;27.20;;;;;;;-1.73;78.08;100376.70;103138;1307;25316;-77
2022/12/18 09:49:44;;;;;;;64.30;26.00;;;;;;;-1.59;77.83;100377.77;103140;1301;139439;-77
2022/12/18 09:52:21;;;;;;;68.70;26.20;;;;;;;-1.51;77.36;100386.56;103248;1295;22486;-77
2022/12/18 09:54:54;;;;;;;60.50;26.70;;;;;;;-1.47;77.19;100382.88;103205;1302;137876;-77
2022/12/18 09:57:24;;;;;;;64.80;27.90;;;;;;;-1.46;76.66;100382.98;103153;1294;22489;-77
2022/12/18 10:00:09;;;;;;;70.00;27.70;;;;;;;-1.44;76.64;100379.60;103190;1284;140031;-77
2022/12/18 10:02:38;;;;;;;61.40;26.40;;;;;;;-1.36;76.76;100377.92;103162;1287;22471;-77
2022/12/18 10:05:10;;;;;;;68.00;28.40;;;;;;;-1.30;75.99;100377.27;103151;1289;25323;-77
2022/12/18 10:07:46;;;;;;;71.10;28.70;;;;;;;-1.20;75.88;100378.27;103465;1295;137698;-77
2022/12/18 10:10:48;;;;;;;67.80;26.10;;;;;;;-1.17;75.76;100379.23;103229;1310;22614;-77
2022/12/18 10:13:59;;;;;;;71.20;27.10;;;;;;;-1.16;75.75;100379.73;103117;1289;137891;-78
2022/12/18 10:16:48;;;;;;;64.80;26.70;;;;;;;-1.08;75.70;100379.30;102405;1296;24390;-77
2022/12/18 10:19:22;;;;;;;59.40;25.00;;;;;;;-1.02;75.19;100387.86;102394;1303;138595;-77
2022/12/18 10:22:03;;;;;;;64.10;23.70;;;;;;;-1.03;74.16;100386.37;102486;1289;22530;-77
2022/12/18 10:24:33;;;;;;;58.20;23.60;;;;;;;-1.04;74.77;100386.94;102552;1293;139081;-77
2022/12/18 10:27:14;;;;;;;62.00;23.40;;;;;;;-0.98;73.91;100390.95;102554;1286;22510;-77
2022/12/18 10:29:44;;;;;;;59.40;25.00;;;;;;;-0.84;74.12;100387.52;102340;1304;138604;-77
2022/12/18 10:32:17;;;;;;;57.80;23.70;;;;;;;-0.70;73.74;100381.24;102641;1297;22523;-78
2022/12/18 10:34:48;;;;;;;58.00;26.00;;;;;;;-0.74;72.66;100376.04;102702;1297;22531;-77
2022/12/18 10:37:22;;;;;;;57.20;24.10;;;;;;;-0.80;72.71;100370.06;102442;1313;137968;-77
2022/12/18 10:40:10;;;;;;;60.30;23.40;;;;;;;-0.71;72.97;100359.36;102503;1309;24373;-77
2022/12/18 10:42:37;;;;;;;50.70;21.20;;;;;;;-0.59;72.28;100366.94;102753;1296;137803;-78
2022/12/18 10:45:14;;;;;;;52.30;21.60;;;;;;;-0.62;72.04;100367.03;102854;1314;22697;-77
2022/12/18 10:47:50;;;;;;;52.20;21.60;;;;;;;-0.69;71.77;100365.48;102802;1297;23028;-78
2022/12/18 10:50:33;;;;;;;43.90;18.50;;;;;;;-0.82;71.03;100363.80;103165;1283;22481;-77
2022/12/18 10:53:03;;;;;;;48.70;19.70;;;;;;;-0.96;70.87;100366.39;103268;1297;23443;-77
2022/12/18 10:55:37;;;;;;;45.00;18.60;;;;;;;-1.02;71.21;100365.27;103089;1289;140488;-77
2022/12/18 10:58:35;;;;;;;43.00;18.10;;;;;;;-1.02;70.89;100360.58;103080;1307;25211;-77
2022/12/18 11:01:05;;;;;;;46.80;19.00;;;;;;;-1.00;70.65;100353.68;102179;1321;139031;-77
2022/12/18 11:03:35;;;;;;;;;;;;;;;-1.01;70.96;100352.86;102944;1312;24351;-77
2022/12/18 11:06:04;;;;;;;48.00;18.90;;;;;;;-1.00;70.87;100349.97;102378;1304;124622;-78
2022/12/18 11:08:31;;;;;;;55.90;18.80;;;;;;;-0.95;70.10;100349.90;102352;1299;23410;-78
2022/12/18 11:10:58;;;;;;;59.90;20.10;;;;;;;-0.83;69.97;100352.48;102019;1308;25261;-77
2022/12/18 11:13:29;;;;;;;59.10;21.70;;;;;;;-0.73;69.13;100348.11;102027;1305;138475;-78
2022/12/18 11:15:57;;;;;;;56.00;19.90;;;;;;;-0.68;68.81;100343.80;102511;1306;22643;-78
2022/12/18 11:18:33;;;;;;;44.70;18.90;;;;;;;-0.56;69.15;100340.83;102827;1296;139036;-77
2022/12/18 11:21:11;;;;;;;43.20;18.60;;;;;;;-0.40;68.93;100336.69;102242;1320;22983;-78
2022/12/18 11:23:54;;;;;;;45.30;18.00;;;;;;;-0.25;68.62;100335.97;102224;1320;25428;-78
2022/12/18 11:26:34;;;;;;;45.10;19.10;;;;;;;-0.16;68.07;100330.77;102148;1313;22521;-78
2022/12/18 11:29:10;;;;;;;45.60;18.50;;;;;;;-0.02;68.24;100329.23;102015;1312;22802;-78